West Dover, VT

5:40 AM EDT on September 23, 2014 (GMT -0400)
Hartness State | Change Station
CLOSE
Current Station
Airport
Location: Springfield,
Elevation: 574 ft
Nearby Weather Stations

Elev 574 ft 43.34 °N, 72.52 °W | Updated 12 hours ago

Clear
Clear
43 °F
Feels Like 43 °F
N
2
Wind Variable Wind from WNW
Gusts mph

Today
High -- | Low -- °F
--% Chance of Precip.
Yesterday
High -- | Low -- °F
Precip. -- in
6:39 AM 6:46 PM
Waning Crescent, 1% visible
Pressure 29.87 in
Visibility 10.0 miles
Clouds Clear
Dew Point 36 °F
Humidity 78%
Rainfall 0.01 in
Snow Depth Not available.
UV 1 out of 12
Pollen 2.90 out of 12
Air Quality Not available.
Flu Activity Not available.
METAR KVSF 222054Z AUTO 26018G23KT 10SM CLR 16/04 A2987 RMK AO2 SLP115 T01560039 53016

More Conditions Fewer Conditions

Pressure 29.87 in
Visibility 10.0 miles
Clouds Clear
Dew Point 36 °F
Humidity 78%
Rainfall 0.01 in
Snow Depth Not available.
UV 1 out of 12
Pollen 2.90 out of 12
Air Quality Not available.
Flu Activity Not available.
METAR KVSF 222054Z AUTO 26018G23KT 10SM CLR 16/04 A2987 RMK AO2 SLP115 T01560039 53016

More Conditions Fewer Conditions

10-Day Weather Forecast

Almanac

Astronomy

Sep. 23, 2014 Rise Set
Actual Time 6:39 AM EDT 6:46 PM EDT
Civil Twilight 6:11 AM EDT 7:15 PM EDT
Nautical Twilight 5:38 AM EDT 7:48 PM EDT
Astronomical Twilight 5:04 AM EDT 8:22 PM EDT
Moon 6:01 AM EDT 6:24 PM EDT
Length of Visible Light 13h 03m
Length of Day
12h 07m
Tomorrow will be 2m 53s shorter.
Waning Crescent, 1% of the Moon is Illuminated
Today
Waning Crescent
Sep 24
New
Oct 1
First Quarter
Oct 8
Full
Oct 15
Last Quarter

Today's Extremes

State Highs State Lows

Community

WunderPhotos

Upload Photos

1,755,644 photos uploaded!

Nearby

Air Quality

  Air Quality AQ Index Pollutant
Yesterday Good
OZONE
Tuesday Good
PM2.5
Tuesday Good
OZONE

Snow Depth

Station Depth Elevation
No new snow has been reported.

Earthquake Activity

City Distance Mag. Time & Date
No recent earthquake activity has been reported nearby.
Minimum magnitude displayed is 2.5.

Coastal Water Temperatures

Place Temperature
No Stations Reporting

Nearby Weather Stations